GEC8272 EDDF-GOBD
Flight info
| Callsign | GEC8272 |
|---|---|
| Flight time | N/A |
| Altitude | 33000 |
| Route | ANEKI3D ANEKI Y163 HERBI/N0480F350 Y164 MOPAN DCT LUTIX DCT BENOT DCT NEMOS DCT NINTU DCT MEBAK DCT REPSI DCT LERGA DCT MINSO DCT NARAK DCT AGN DCT MAQAB DCT TIVLI DCT ELSAP DCT ZAR DCT EXEMU DCT PISUS DCT EDIMU DCT ADUXO DCT NUSGO DCT OBIBO DCT NASOS L27 BLN DCT MGA/N0481F370 M985 PIMOS N869 GALTO UB11 PELAX UN869 ADM UR975 DIDAN/N0483F360 UR975 MOROX/N0480F380 UR975 SAKLI SAKLI1A |
| Aircraft | MD11/H-SDE1E2E3FGHIJ2J3J4J5M1RWXY/LB1D1 |
Departure
| Time | N/A |
|---|---|
| Airport | Frankfurt Main Airport (EDDF) |
Arrival
| Time | 2026-05-08 16:15 |
|---|---|
| Airport | Blaise Diagne International Airport (GOBD) |
| Time | Latitude | Longitude | Altitude | Speed | Heading |
|---|---|---|---|---|---|
| 2026-05-08 14:18 | 26.09826 | -11.18327 | 36968 ft | 439 kts | 207° |
| 2026-05-08 14:18 | 26.06956 | -11.19526 | 36968 ft | 440 kts | 207° |
| 2026-05-08 14:19 | 26.01220 | -11.21921 | 36969 ft | 440 kts | 207° |
| 2026-05-08 14:19 | 25.95490 | -11.24315 | 36968 ft | 440 kts | 207° |
| 2026-05-08 14:20 | 25.89768 | -11.26706 | 36966 ft | 440 kts | 207° |
| 2026-05-08 14:20 | 25.84040 | -11.29097 | 36963 ft | 440 kts | 207° |
| 2026-05-08 14:21 | 25.78306 | -11.31488 | 36955 ft | 441 kts | 207° |
| 2026-05-08 14:21 | 25.72551 | -11.33886 | 36963 ft | 442 kts | 207° |
| 2026-05-08 14:22 | 25.66790 | -11.36282 | 36960 ft | 442 kts | 207° |
| 2026-05-08 14:22 | 25.61034 | -11.38674 | 36961 ft | 442 kts | 207° |
| 2026-05-08 14:23 | 25.55275 | -11.41065 | 36956 ft | 442 kts | 207° |
| 2026-05-08 14:23 | 25.49516 | -11.43454 | 36928 ft | 442 kts | 207° |
| 2026-05-08 14:24 | 25.43783 | -11.45830 | 36951 ft | 443 kts | 207° |
| 2026-05-08 14:24 | 25.38003 | -11.48223 | 36955 ft | 443 kts | 207° |
| 2026-05-08 14:25 | 25.32226 | -11.50610 | 36959 ft | 443 kts | 207° |
| 2026-05-08 14:25 | 25.26445 | -11.52990 | 36952 ft | 443 kts | 207° |
| 2026-05-08 14:26 | 25.20648 | -11.55345 | 36950 ft | 444 kts | 206° |
| 2026-05-08 14:26 | 25.14832 | -11.57566 | 36944 ft | 446 kts | 205° |
| 2026-05-08 14:27 | 25.08949 | -11.59776 | 36947 ft | 446 kts | 205° |
| 2026-05-08 14:27 | 25.03070 | -11.61988 | 36950 ft | 446 kts | 205° |
| 2026-05-08 14:28 | 24.97192 | -11.64204 | 36947 ft | 446 kts | 205° |
| 2026-05-08 14:28 | 24.91328 | -11.66414 | 36944 ft | 446 kts | 205° |
| 2026-05-08 14:29 | 24.85446 | -11.68629 | 36928 ft | 446 kts | 205° |
| 2026-05-08 14:29 | 24.79586 | -11.70834 | 36943 ft | 448 kts | 205° |
| 2026-05-08 14:30 | 24.73681 | -11.73052 | 36939 ft | 448 kts | 205° |
| 2026-05-08 14:30 | 24.67780 | -11.75267 | 36940 ft | 447 kts | 205° |
| 2026-05-08 14:31 | 24.61880 | -11.77480 | 36940 ft | 447 kts | 205° |
| 2026-05-08 14:31 | 24.56024 | -11.79673 | 36941 ft | 447 kts | 205° |
| 2026-05-08 14:32 | 24.47162 | -11.82990 | 36935 ft | 449 kts | 205° |
| 2026-05-08 14:32 | 24.41247 | -11.85198 | 36936 ft | 449 kts | 205° |
| 2026-05-08 14:33 | 24.35324 | -11.87402 | 36938 ft | 449 kts | 205° |
| 2026-05-08 14:33 | 24.29400 | -11.89608 | 36939 ft | 449 kts | 205° |
| 2026-05-08 14:34 | 24.23526 | -11.91797 | 36941 ft | 449 kts | 205° |
| 2026-05-08 14:34 | 24.20567 | -11.92899 | 37078 ft | 449 kts | 205° |
| 2026-05-08 14:34 | 24.17599 | -11.94003 | 37354 ft | 449 kts | 205° |
| 2026-05-08 14:35 | 24.14641 | -11.95103 | 37614 ft | 448 kts | 205° |
| 2026-05-08 14:35 | 24.11694 | -11.96198 | 37868 ft | 448 kts | 205° |
| 2026-05-08 14:35 | 24.05794 | -11.98390 | 37935 ft | 447 kts | 205° |
| 2026-05-08 14:36 | 23.99902 | -12.00577 | 37933 ft | 447 kts | 205° |
| 2026-05-08 14:36 | 23.94012 | -12.02761 | 37939 ft | 447 kts | 205° |
| 2026-05-08 14:37 | 23.88120 | -12.04944 | 37942 ft | 448 kts | 204° |
| 2026-05-08 14:37 | 23.82209 | -12.07132 | 37942 ft | 449 kts | 204° |
| 2026-05-08 14:38 | 23.76279 | -12.09323 | 37926 ft | 449 kts | 204° |
| 2026-05-08 14:38 | 23.70395 | -12.11496 | 37924 ft | 449 kts | 204° |
| 2026-05-08 14:39 | 23.64465 | -12.13684 | 37925 ft | 449 kts | 204° |
| 2026-05-08 14:39 | 23.58532 | -12.15865 | 37903 ft | 449 kts | 204° |
| 2026-05-08 14:40 | 23.52598 | -12.18047 | 37935 ft | 450 kts | 204° |
| 2026-05-08 14:40 | 23.46655 | -12.20232 | 37935 ft | 450 kts | 204° |
| 2026-05-08 14:41 | 23.40756 | -12.22407 | 37935 ft | 450 kts | 204° |
| 2026-05-08 14:41 | 23.34807 | -12.24604 | 37932 ft | 450 kts | 204° |
| 2026-05-08 14:42 | 23.28873 | -12.26793 | 37930 ft | 450 kts | 204° |
| 2026-05-08 14:42 | 23.22929 | -12.28985 | 37928 ft | 452 kts | 204° |
| 2026-05-08 14:43 | 23.17003 | -12.31168 | 37932 ft | 452 kts | 204° |
| 2026-05-08 14:43 | 23.11056 | -12.33355 | 37926 ft | 452 kts | 204° |
| 2026-05-08 14:44 | 23.05093 | -12.35547 | 37931 ft | 452 kts | 204° |
| 2026-05-08 14:44 | 22.99135 | -12.37735 | 37928 ft | 452 kts | 204° |
| 2026-05-08 14:45 | 22.93183 | -12.39919 | 37909 ft | 452 kts | 204° |
| 2026-05-08 14:45 | 22.87216 | -12.42107 | 37924 ft | 453 kts | 203° |
| 2026-05-08 14:46 | 22.81216 | -12.44259 | 37924 ft | 455 kts | 201° |
| 2026-05-08 14:46 | 22.75092 | -12.46046 | 37925 ft | 456 kts | 199° |
| 2026-05-08 14:47 | 22.68956 | -12.47694 | 37922 ft | 457 kts | 199° |
| 2026-05-08 14:47 | 22.62788 | -12.49365 | 37925 ft | 457 kts | 199° |
| 2026-05-08 14:48 | 22.56623 | -12.51055 | 37911 ft | 457 kts | 199° |
| 2026-05-08 14:48 | 22.50451 | -12.52750 | 37913 ft | 457 kts | 199° |
| 2026-05-08 14:49 | 22.44287 | -12.54443 | 37915 ft | 457 kts | 199° |
| 2026-05-08 14:49 | 22.38158 | -12.56123 | 37920 ft | 457 kts | 199° |
| 2026-05-08 14:50 | 22.31995 | -12.57812 | 37907 ft | 457 kts | 199° |
| 2026-05-08 14:50 | 22.25834 | -12.59498 | 37903 ft | 456 kts | 199° |
| 2026-05-08 14:51 | 22.19681 | -12.61180 | 37909 ft | 456 kts | 199° |
| 2026-05-08 14:51 | 22.13521 | -12.62863 | 37905 ft | 456 kts | 199° |
| 2026-05-08 14:52 | 22.04286 | -12.65383 | 37902 ft | 456 kts | 199° |
| 2026-05-08 14:53 | 21.98169 | -12.67049 | 37904 ft | 456 kts | 199° |
| 2026-05-08 14:53 | 21.92016 | -12.68720 | 37895 ft | 456 kts | 199° |
| 2026-05-08 14:54 | 21.85868 | -12.70391 | 37900 ft | 456 kts | 199° |
| 2026-05-08 14:54 | 21.79701 | -12.72068 | 37898 ft | 456 kts | 199° |
| 2026-05-08 14:55 | 21.73547 | -12.73739 | 37896 ft | 456 kts | 199° |
| 2026-05-08 14:55 | 21.67389 | -12.75410 | 37895 ft | 456 kts | 199° |
| 2026-05-08 14:56 | 21.61238 | -12.77078 | 37891 ft | 455 kts | 198° |
| 2026-05-08 14:56 | 21.55114 | -12.78737 | 37904 ft | 458 kts | 198° |
| 2026-05-08 14:57 | 21.48931 | -12.80411 | 37908 ft | 458 kts | 198° |
| 2026-05-08 14:57 | 21.42751 | -12.82081 | 37899 ft | 458 kts | 198° |
| 2026-05-08 14:58 | 21.37565 | -12.83483 | 37899 ft | 458 kts | 198° |
| 2026-05-08 14:58 | 21.31397 | -12.85148 | 37900 ft | 458 kts | 198° |
| 2026-05-08 14:59 | 21.25268 | -12.86801 | 37887 ft | 456 kts | 198° |
| 2026-05-08 14:59 | 21.16039 | -12.89284 | 37888 ft | 455 kts | 198° |
| 2026-05-08 15:00 | 21.09890 | -12.90937 | 37893 ft | 455 kts | 198° |
| 2026-05-08 15:00 | 21.03745 | -12.92588 | 37888 ft | 455 kts | 198° |
| 2026-05-08 15:01 | 20.97599 | -12.94239 | 37890 ft | 455 kts | 198° |
| 2026-05-08 15:01 | 20.91441 | -12.95892 | 37884 ft | 456 kts | 198° |
| 2026-05-08 15:02 | 20.85291 | -12.97542 | 37889 ft | 456 kts | 198° |
| 2026-05-08 15:02 | 20.79138 | -12.99191 | 37885 ft | 456 kts | 198° |
| 2026-05-08 15:03 | 20.73028 | -13.00827 | 37879 ft | 456 kts | 198° |
| 2026-05-08 15:03 | 20.66874 | -13.02474 | 37887 ft | 456 kts | 198° |
| 2026-05-08 15:04 | 20.60741 | -13.04111 | 37875 ft | 449 kts | 199° |
| 2026-05-08 15:04 | 20.54709 | -13.05721 | 37884 ft | 445 kts | 199° |
| 2026-05-08 15:05 | 20.48713 | -13.07368 | 37878 ft | 443 kts | 202° |
| 2026-05-08 15:05 | 20.43296 | -13.10274 | 37880 ft | 434 kts | 218° |
| 2026-05-08 15:06 | 20.38512 | -13.14191 | 37876 ft | 434 kts | 221° |
| 2026-05-08 15:06 | 20.33740 | -13.18166 | 37882 ft | 441 kts | 220° |
| 2026-05-08 15:07 | 20.28835 | -13.22106 | 37871 ft | 439 kts | 219° |
| 2026-05-08 15:07 | 20.23994 | -13.25928 | 37874 ft | 430 kts | 219° |
| 2026-05-08 15:08 | 20.19193 | -13.29711 | 37872 ft | 429 kts | 219° |
| 2026-05-08 15:08 | 20.14394 | -13.33491 | 37873 ft | 429 kts | 219° |
| 2026-05-08 15:09 | 20.09591 | -13.37273 | 37873 ft | 429 kts | 219° |
| 2026-05-08 15:09 | 20.04821 | -13.41026 | 37874 ft | 429 kts | 219° |
| 2026-05-08 15:10 | 20.00020 | -13.44799 | 37872 ft | 429 kts | 219° |
| 2026-05-08 15:10 | 19.95215 | -13.48573 | 37857 ft | 429 kts | 219° |
| 2026-05-08 15:11 | 19.90435 | -13.52324 | 37867 ft | 426 kts | 219° |
| 2026-05-08 15:11 | 19.85666 | -13.56064 | 37871 ft | 426 kts | 219° |
| 2026-05-08 15:12 | 19.80896 | -13.59803 | 37868 ft | 426 kts | 219° |
| 2026-05-08 15:12 | 19.76149 | -13.63513 | 37868 ft | 426 kts | 219° |
| 2026-05-08 15:13 | 19.71376 | -13.67238 | 37871 ft | 426 kts | 219° |
| 2026-05-08 15:13 | 19.66598 | -13.70970 | 37862 ft | 426 kts | 219° |
| 2026-05-08 15:14 | 19.61821 | -13.74702 | 37862 ft | 426 kts | 219° |
| 2026-05-08 15:14 | 19.57060 | -13.78418 | 37860 ft | 422 kts | 219° |
| 2026-05-08 15:15 | 19.52332 | -13.82106 | 37864 ft | 421 kts | 219° |
| 2026-05-08 15:15 | 19.47612 | -13.85786 | 37867 ft | 421 kts | 219° |
| 2026-05-08 15:16 | 19.42884 | -13.89470 | 37869 ft | 425 kts | 219° |
| 2026-05-08 15:16 | 19.38118 | -13.93180 | 37864 ft | 425 kts | 219° |
| 2026-05-08 15:17 | 19.33351 | -13.96887 | 37865 ft | 425 kts | 219° |
| 2026-05-08 15:17 | 19.28583 | -14.00592 | 37864 ft | 425 kts | 219° |
| 2026-05-08 15:18 | 19.23816 | -14.04294 | 37856 ft | 424 kts | 219° |
| 2026-05-08 15:18 | 19.19107 | -14.07947 | 37856 ft | 421 kts | 219° |
| 2026-05-08 15:19 | 19.14379 | -14.11614 | 37861 ft | 421 kts | 219° |
| 2026-05-08 15:19 | 19.09650 | -14.15275 | 37861 ft | 421 kts | 219° |
| 2026-05-08 15:20 | 19.04919 | -14.18929 | 37858 ft | 421 kts | 219° |
| 2026-05-08 15:20 | 19.00187 | -14.22586 | 37856 ft | 422 kts | 219° |
| 2026-05-08 15:21 | 18.95422 | -14.26271 | 37857 ft | 424 kts | 219° |
| 2026-05-08 15:21 | 18.90654 | -14.29954 | 37859 ft | 424 kts | 219° |
| 2026-05-08 15:22 | 18.85922 | -14.33607 | 37864 ft | 422 kts | 219° |
| 2026-05-08 15:22 | 18.81181 | -14.37265 | 37864 ft | 422 kts | 219° |
| 2026-05-08 15:23 | 18.76438 | -14.40922 | 37865 ft | 422 kts | 219° |
| 2026-05-08 15:23 | 18.71697 | -14.44575 | 37865 ft | 422 kts | 219° |
| 2026-05-08 15:24 | 18.66982 | -14.48205 | 37865 ft | 422 kts | 219° |
| 2026-05-08 15:24 | 18.62231 | -14.51860 | 37867 ft | 422 kts | 219° |
| 2026-05-08 15:25 | 18.57485 | -14.55509 | 37867 ft | 422 kts | 219° |
| 2026-05-08 15:25 | 18.52738 | -14.59156 | 37861 ft | 422 kts | 219° |
| 2026-05-08 15:26 | 18.47996 | -14.62796 | 37868 ft | 421 kts | 219° |
| 2026-05-08 15:26 | 18.43282 | -14.66411 | 37869 ft | 421 kts | 219° |
| 2026-05-08 15:27 | 18.38537 | -14.70038 | 37871 ft | 421 kts | 219° |
| 2026-05-08 15:27 | 18.33789 | -14.73670 | 37870 ft | 421 kts | 219° |
| 2026-05-08 15:28 | 18.29041 | -14.77304 | 37869 ft | 422 kts | 219° |
| 2026-05-08 15:28 | 18.24303 | -14.80929 | 37872 ft | 421 kts | 219° |
| 2026-05-08 15:29 | 18.19558 | -14.84557 | 37873 ft | 422 kts | 219° |
| 2026-05-08 15:29 | 18.14855 | -14.88149 | 37870 ft | 419 kts | 218° |
| 2026-05-08 15:30 | 18.10149 | -14.91742 | 37873 ft | 418 kts | 218° |
| 2026-05-08 15:30 | 18.05431 | -14.95342 | 37876 ft | 420 kts | 219° |
| 2026-05-08 15:31 | 18.00690 | -14.98958 | 37877 ft | 421 kts | 219° |
| 2026-05-08 15:31 | 17.95938 | -15.02577 | 37876 ft | 421 kts | 219° |
| 2026-05-08 15:32 | 17.91216 | -15.06173 | 37875 ft | 421 kts | 219° |
| 2026-05-08 15:32 | 17.86468 | -15.09785 | 37876 ft | 421 kts | 219° |
| 2026-05-08 15:33 | 17.81719 | -15.13387 | 37860 ft | 421 kts | 218° |
| 2026-05-08 15:33 | 17.76983 | -15.16960 | 37873 ft | 419 kts | 218° |
| 2026-05-08 15:34 | 17.72242 | -15.20540 | 37877 ft | 419 kts | 218° |
| 2026-05-08 15:34 | 17.67541 | -15.24090 | 37878 ft | 419 kts | 218° |
| 2026-05-08 15:35 | 17.62814 | -15.27658 | 37879 ft | 419 kts | 218° |
| 2026-05-08 15:35 | 17.58082 | -15.31230 | 37873 ft | 419 kts | 218° |
| 2026-05-08 15:36 | 17.54139 | -15.34205 | 37880 ft | 419 kts | 218° |
| 2026-05-08 15:36 | 17.48607 | -15.38379 | 37876 ft | 419 kts | 218° |
| 2026-05-08 15:37 | 17.43873 | -15.41947 | 37877 ft | 419 kts | 218° |
| 2026-05-08 15:37 | 17.39166 | -15.45494 | 37877 ft | 419 kts | 218° |
| 2026-05-08 15:38 | 17.34423 | -15.49064 | 37880 ft | 419 kts | 218° |
| 2026-05-08 15:38 | 17.29692 | -15.52624 | 37883 ft | 419 kts | 218° |
| 2026-05-08 15:39 | 17.24956 | -15.56185 | 37886 ft | 419 kts | 218° |
| 2026-05-08 15:39 | 17.20214 | -15.59748 | 37887 ft | 419 kts | 218° |
| 2026-05-08 15:40 | 17.15508 | -15.63282 | 37885 ft | 419 kts | 218° |
| 2026-05-08 15:40 | 17.10756 | -15.66847 | 37890 ft | 420 kts | 218° |
| 2026-05-08 15:41 | 17.06014 | -15.70396 | 37894 ft | 419 kts | 218° |
| 2026-05-08 15:41 | 17.01275 | -15.73945 | 37893 ft | 418 kts | 218° |
| 2026-05-08 15:42 | 16.96540 | -15.77491 | 37894 ft | 418 kts | 218° |
| 2026-05-08 15:42 | 16.91815 | -15.81029 | 37904 ft | 418 kts | 218° |
| 2026-05-08 15:43 | 16.87127 | -15.84536 | 37901 ft | 417 kts | 218° |
| 2026-05-08 15:43 | 16.82412 | -15.88062 | 37902 ft | 417 kts | 218° |
| 2026-05-08 15:44 | 16.77692 | -15.91589 | 37901 ft | 417 kts | 218° |
| 2026-05-08 15:44 | 16.72966 | -15.95119 | 37913 ft | 417 kts | 218° |
| 2026-05-08 15:45 | 16.68241 | -15.98645 | 37911 ft | 418 kts | 218° |
| 2026-05-08 15:45 | 16.64308 | -16.01578 | 37911 ft | 418 kts | 218° |
| 2026-05-08 15:46 | 16.59573 | -16.05109 | 37911 ft | 418 kts | 218° |
| 2026-05-08 15:46 | 16.54064 | -16.09213 | 37919 ft | 418 kts | 218° |
| 2026-05-08 15:47 | 16.50119 | -16.12152 | 37920 ft | 418 kts | 218° |
| 2026-05-08 15:47 | 16.45386 | -16.15685 | 37919 ft | 418 kts | 218° |
| 2026-05-08 15:48 | 16.38368 | -16.20931 | 37924 ft | 419 kts | 218° |
| 2026-05-08 15:49 | 16.33662 | -16.24447 | 37931 ft | 419 kts | 218° |
| 2026-05-08 15:49 | 16.28922 | -16.27985 | 37931 ft | 419 kts | 218° |
| 2026-05-08 15:50 | 16.24192 | -16.31514 | 37925 ft | 419 kts | 218° |
| 2026-05-08 15:50 | 16.19479 | -16.35028 | 37935 ft | 419 kts | 219° |
| 2026-05-08 15:51 | 16.14738 | -16.38562 | 37941 ft | 419 kts | 219° |
| 2026-05-08 15:51 | 16.09989 | -16.42099 | 37939 ft | 419 kts | 218° |
| 2026-05-08 15:52 | 16.05065 | -16.45393 | 37914 ft | 422 kts | 213° |
| 2026-05-08 15:52 | 15.99912 | -16.48349 | 37938 ft | 423 kts | 212° |
| 2026-05-08 15:52 | 15.97323 | -16.49810 | 37818 ft | 424 kts | 212° |
| 2026-05-08 15:53 | 15.94740 | -16.51274 | 37607 ft | 423 kts | 212° |
| 2026-05-08 15:53 | 15.92146 | -16.52753 | 37300 ft | 425 kts | 212° |
| 2026-05-08 15:53 | 15.89584 | -16.54218 | 36806 ft | 426 kts | 212° |
| 2026-05-08 15:53 | 15.86953 | -16.55727 | 36297 ft | 427 kts | 212° |
| 2026-05-08 15:54 | 15.84368 | -16.57211 | 35800 ft | 429 kts | 212° |
| 2026-05-08 15:54 | 15.81746 | -16.58717 | 35307 ft | 431 kts | 212° |
| 2026-05-08 15:54 | 15.79111 | -16.60230 | 34806 ft | 434 kts | 212° |
| 2026-05-08 15:54 | 15.76450 | -16.61757 | 34307 ft | 436 kts | 212° |
| 2026-05-08 15:55 | 15.73789 | -16.63282 | 33781 ft | 438 kts | 212° |
| 2026-05-08 15:55 | 15.68462 | -16.66336 | 32678 ft | 444 kts | 212° |
| 2026-05-08 15:55 | 15.65737 | -16.67898 | 32134 ft | 448 kts | 212° |
| 2026-05-08 15:56 | 15.62996 | -16.69468 | 31587 ft | 452 kts | 212° |
| 2026-05-08 15:56 | 15.60232 | -16.71051 | 31036 ft | 454 kts | 212° |
| 2026-05-08 15:56 | 15.57462 | -16.72636 | 30464 ft | 456 kts | 212° |
| 2026-05-08 15:56 | 15.54671 | -16.74233 | 29832 ft | 457 kts | 212° |
| 2026-05-08 15:57 | 15.51912 | -16.75810 | 29161 ft | 455 kts | 212° |
| 2026-05-08 15:57 | 15.49148 | -16.77390 | 28531 ft | 453 kts | 212° |
| 2026-05-08 15:57 | 15.46386 | -16.78969 | 27921 ft | 451 kts | 211° |
| 2026-05-08 15:57 | 15.43646 | -16.80535 | 27328 ft | 450 kts | 211° |
| 2026-05-08 15:58 | 15.40904 | -16.82102 | 26730 ft | 448 kts | 211° |
| 2026-05-08 15:58 | 15.38168 | -16.83664 | 26137 ft | 447 kts | 210° |
| 2026-05-08 15:58 | 15.35455 | -16.85214 | 25549 ft | 446 kts | 210° |
| 2026-05-08 15:58 | 15.32711 | -16.86700 | 24962 ft | 445 kts | 205° |
| 2026-05-08 15:59 | 15.29817 | -16.87792 | 24354 ft | 442 kts | 198° |
| 2026-05-08 15:59 | 15.26883 | -16.88595 | 23720 ft | 437 kts | 194° |
| 2026-05-08 15:59 | 15.23917 | -16.89289 | 23009 ft | 436 kts | 192° |
| 2026-05-08 15:59 | 15.20955 | -16.89956 | 22322 ft | 432 kts | 193° |
| 2026-05-08 16:00 | 15.18030 | -16.90626 | 21686 ft | 426 kts | 193° |
| 2026-05-08 16:00 | 15.15158 | -16.91304 | 21060 ft | 421 kts | 194° |
| 2026-05-08 16:00 | 15.12311 | -16.91994 | 20452 ft | 419 kts | 194° |
| 2026-05-08 16:00 | 15.09494 | -16.92685 | 19847 ft | 413 kts | 194° |
| 2026-05-08 16:01 | 15.06753 | -16.93362 | 19255 ft | 408 kts | 195° |
| 2026-05-08 16:01 | 15.04001 | -16.94044 | 18669 ft | 406 kts | 195° |
| 2026-05-08 16:01 | 15.01261 | -16.94724 | 18061 ft | 402 kts | 194° |
| 2026-05-08 16:01 | 14.98562 | -16.95394 | 17413 ft | 396 kts | 194° |
| 2026-05-08 16:02 | 14.95898 | -16.96055 | 16817 ft | 390 kts | 194° |
| 2026-05-08 16:02 | 14.93265 | -16.96706 | 16245 ft | 389 kts | 193° |
| 2026-05-08 16:02 | 14.90606 | -16.97109 | 15681 ft | 383 kts | 184° |
| 2026-05-08 16:02 | 14.87961 | -16.97200 | 15127 ft | 378 kts | 180° |
| 2026-05-08 16:03 | 14.85343 | -16.97174 | 14589 ft | 375 kts | 179° |
| 2026-05-08 16:03 | 14.82748 | -16.97118 | 14055 ft | 372 kts | 179° |
| 2026-05-08 16:03 | 14.80193 | -16.97064 | 13506 ft | 369 kts | 179° |
| 2026-05-08 16:03 | 14.77645 | -16.97020 | 13063 ft | 366 kts | 179° |
| 2026-05-08 16:04 | 14.75109 | -16.96985 | 12662 ft | 360 kts | 179° |
| 2026-05-08 16:04 | 14.72599 | -16.96956 | 11998 ft | 360 kts | 178° |
| 2026-05-08 16:04 | 14.70099 | -16.96930 | 11454 ft | 359 kts | 178° |
| 2026-05-08 16:04 | 14.67591 | -16.96906 | 11137 ft | 360 kts | 178° |
| 2026-05-08 16:05 | 14.65125 | -16.96884 | 10989 ft | 345 kts | 178° |
| 2026-05-08 16:05 | 14.62794 | -16.96867 | 10881 ft | 327 kts | 177° |
| 2026-05-08 16:05 | 14.60575 | -16.96849 | 10751 ft | 311 kts | 178° |
| 2026-05-08 16:05 | 14.58462 | -16.96832 | 10636 ft | 295 kts | 176° |
| 2026-05-08 16:06 | 14.56446 | -16.96815 | 10508 ft | 286 kts | 177° |
| 2026-05-08 16:06 | 14.54450 | -16.96796 | 10250 ft | 288 kts | 177° |
| 2026-05-08 16:06 | 14.52449 | -16.96776 | 9786 ft | 288 kts | 176° |
| 2026-05-08 16:06 | 14.50462 | -16.96756 | 9255 ft | 290 kts | 176° |
| 2026-05-08 16:07 | 14.48437 | -16.96736 | 8742 ft | 292 kts | 176° |
| 2026-05-08 16:07 | 14.46402 | -16.96717 | 8247 ft | 293 kts | 176° |
| 2026-05-08 16:07 | 14.44365 | -16.96697 | 7794 ft | 292 kts | 178° |
| 2026-05-08 16:07 | 14.42356 | -16.96682 | 7554 ft | 283 kts | 179° |
| 2026-05-08 16:08 | 14.40418 | -16.96901 | 7197 ft | 281 kts | 195° |
| 2026-05-08 16:08 | 14.38736 | -16.97908 | 6728 ft | 283 kts | 226° |
| 2026-05-08 16:08 | 14.37809 | -16.99634 | 6281 ft | 273 kts | 258° |
| 2026-05-08 16:08 | 14.37597 | -17.01545 | 5831 ft | 267 kts | 271° |
| 2026-05-08 16:09 | 14.37625 | -17.03443 | 5402 ft | 262 kts | 280° |
| 2026-05-08 16:09 | 14.37887 | -17.04641 | 5135 ft | 255 kts | 295° |
| 2026-05-08 16:09 | 14.39310 | -17.06474 | 4649 ft | 243 kts | 332° |
| 2026-05-08 16:09 | 14.40877 | -17.06960 | 4312 ft | 237 kts | 355° |
| 2026-05-08 16:10 | 14.42494 | -17.07056 | 3957 ft | 230 kts | 359° |
| 2026-05-08 16:10 | 14.44096 | -17.07085 | 3632 ft | 229 kts | 360° |
| 2026-05-08 16:10 | 14.45671 | -17.07103 | 3298 ft | 228 kts | 360° |
| 2026-05-08 16:10 | 14.47245 | -17.07120 | 2997 ft | 223 kts | 359° |
| 2026-05-08 16:11 | 14.48800 | -17.07135 | 2925 ft | 223 kts | 0° |
| 2026-05-08 16:11 | 14.50349 | -17.07148 | 2900 ft | 224 kts | 359° |
| 2026-05-08 16:11 | 14.51859 | -17.07164 | 2867 ft | 206 kts | 359° |
| 2026-05-08 16:11 | 14.53206 | -17.07176 | 2588 ft | 184 kts | 360° |
| 2026-05-08 16:12 | 14.54425 | -17.07187 | 2356 ft | 164 kts | 1° |
| 2026-05-08 16:12 | 14.55508 | -17.07196 | 2098 ft | 149 kts | 2° |
| 2026-05-08 16:12 | 14.56532 | -17.07204 | 1941 ft | 144 kts | 1° |
| 2026-05-08 16:12 | 14.57523 | -17.07211 | 1782 ft | 140 kts | 0° |
| 2026-05-08 16:13 | 14.58483 | -17.07235 | 1570 ft | 138 kts | 2° |
| 2026-05-08 16:13 | 14.59417 | -17.07235 | 1357 ft | 133 kts | 3° |
| 2026-05-08 16:13 | 14.60393 | -17.07208 | 1244 ft | 149 kts | 5° |
| 2026-05-08 16:13 | 14.61445 | -17.07199 | 1189 ft | 148 kts | 358° |
| 2026-05-08 16:14 | 14.62439 | -17.07213 | 950 ft | 140 kts | 359° |
| 2026-05-08 16:14 | 14.63425 | -17.07230 | 725 ft | 142 kts | 358° |
| 2026-05-08 16:14 | 14.64416 | -17.07259 | 528 ft | 146 kts | 359° |
| 2026-05-08 16:14 | 14.65451 | -17.07270 | 370 ft | 146 kts | 360° |
| 2026-05-08 16:15 | 14.66383 | -17.07272 | 301 ft | 115 kts | 5° |
| 2026-05-08 16:15 | 14.66979 | -17.07274 | 301 ft | 57 kts | 359° |
| 2026-05-08 16:15 | 14.67256 | -17.07277 | 301 ft | 34 kts | 359° |
| 2026-05-08 16:15 | 14.67434 | -17.07281 | 301 ft | 23 kts | 358° |
| 2026-05-08 16:16 | 14.67583 | -17.07282 | 301 ft | 20 kts | 4° |
| 2026-05-08 16:16 | 14.67671 | -17.07264 | 302 ft | 6 kts | 26° |
| 2026-05-08 16:16 | 14.67707 | -17.07246 | 300 ft | 5 kts | 26° |
| 2026-05-08 16:16 | 14.67727 | -17.07235 | 303 ft | 4 kts | 28° |
| 2026-05-08 16:17 | 14.67767 | -17.07213 | 303 ft | 10 kts | 28° |
| 2026-05-08 16:17 | 14.67811 | -17.07189 | 303 ft | 10 kts | 28° |
| 2026-05-08 16:17 | 14.67837 | -17.07143 | 302 ft | 4 kts | 94° |
| 2026-05-08 16:17 | 14.67788 | -17.07105 | 301 ft | 14 kts | 168° |
| 2026-05-08 16:18 | 14.67670 | -17.07096 | 300 ft | 21 kts | 179° |
| 2026-05-08 16:18 | 14.67519 | -17.07094 | 300 ft | 21 kts | 179° |
| 2026-05-08 16:18 | 14.67379 | -17.07094 | 303 ft | 19 kts | 180° |
| 2026-05-08 16:18 | 14.67251 | -17.07095 | 300 ft | 18 kts | 180° |
| 2026-05-08 16:19 | 14.67134 | -17.07095 | 300 ft | 16 kts | 180° |
| 2026-05-08 16:19 | 14.67028 | -17.07095 | 304 ft | 14 kts | 180° |
| 2026-05-08 16:19 | 14.66934 | -17.07096 | 300 ft | 13 kts | 180° |
| 2026-05-08 16:19 | 14.66847 | -17.07096 | 302 ft | 11 kts | 178° |
| 2026-05-08 16:20 | 14.66759 | -17.07090 | 304 ft | 16 kts | 177° |
| 2026-05-08 16:20 | 14.66656 | -17.07086 | 300 ft | 14 kts | 177° |
| 2026-05-08 16:20 | 14.66561 | -17.07081 | 300 ft | 13 kts | 177° |
| 2026-05-08 16:20 | 14.66477 | -17.07078 | 300 ft | 12 kts | 177° |
| 2026-05-08 16:21 | 14.66410 | -17.07080 | 303 ft | 8 kts | 184° |
| 2026-05-08 16:21 | 14.66356 | -17.07084 | 303 ft | 7 kts | 184° |
| 2026-05-08 16:21 | 14.66309 | -17.07088 | 303 ft | 6 kts | 184° |
| 2026-05-08 16:21 | 14.66255 | -17.07088 | 301 ft | 13 kts | 178° |
| 2026-05-08 16:22 | 14.66126 | -17.07084 | 305 ft | 23 kts | 178° |
| 2026-05-08 16:22 | 14.65969 | -17.07080 | 300 ft | 22 kts | 179° |
| 2026-05-08 16:22 | 14.65824 | -17.07078 | 304 ft | 20 kts | 179° |
| 2026-05-08 16:22 | 14.65695 | -17.07077 | 302 ft | 17 kts | 179° |
| 2026-05-08 16:23 | 14.65586 | -17.07078 | 303 ft | 14 kts | 187° |
| 2026-05-08 16:23 | 14.65527 | -17.07136 | 304 ft | 10 kts | 245° |
| 2026-05-08 16:23 | 14.65524 | -17.07198 | 302 ft | 11 kts | 272° |
| 2026-05-08 16:23 | 14.65528 | -17.07302 | 301 ft | 18 kts | 271° |
| 2026-05-08 16:24 | 14.65526 | -17.07440 | 304 ft | 18 kts | 269° |
| 2026-05-08 16:24 | 14.65524 | -17.07562 | 304 ft | 15 kts | 269° |
| 2026-05-08 16:24 | 14.65524 | -17.07657 | 302 ft | 11 kts | 270° |
| 2026-05-08 16:24 | 14.65524 | -17.07694 | 304 ft | 2 kts | 270° |
| 2026-05-08 16:25 | 14.65524 | -17.07705 | 304 ft | 2 kts | 269° |
| 2026-05-08 16:25 | 14.65524 | -17.07706 | 304 ft | 0 kts | 269° |